Time;durP1;ratioP1;P1;durP2;ratioP2;P2;SDS_P1;SDS_P2;PMS_P1;PMS_P2;Temp;Humidity;BMP_temperature;BMP_pressure;BME280_temperature;BME280_humidity;BME280_pressure;Samples;Min_cycle;Max_cycle;Signal;HPM_P1;HPM_P2
2022/07/04 00:01:55;;;;;;;6.60;3.33;;;;;;;;;;4989213;28;20045;-93
2022/07/04 00:04:24;;;;;;;7.65;3.38;;;;;;;;;;4989954;28;20073;-93
2022/07/04 00:06:55;;;;;;;10.82;3.65;;;;;;;;;;4994210;28;20148;-94
2022/07/04 00:09:24;;;;;;;12.55;3.58;;;;;;;;;;4988980;28;20069;-94
2022/07/04 00:11:50;;;;;;;8.82;4.28;;;;;;;;;;4988045;28;20030;-92
2022/07/04 00:14:17;;;;;;;12.43;3.30;;;;;;;;;;4991570;28;20022;-94
2022/07/04 00:16:43;;;;;;;9.30;3.47;;;;;;;;;;4991376;28;20478;-94
2022/07/04 00:19:15;;;;;;;12.23;3.42;;;;;;;;;;4997777;28;20026;-93
2022/07/04 00:21:43;;;;;;;7.35;3.30;;;;;;;;;;5000721;28;20294;-94
2022/07/04 00:24:09;;;;;;;16.08;3.92;;;;;;;;;;4990905;28;20034;-94
2022/07/04 00:26:40;;;;;;;9.95;3.95;;;;;;;;;;5004593;28;20505;-93
2022/07/04 00:29:06;;;;;;;7.20;3.50;;;;;;;;;;4993151;28;20136;-93
2022/07/04 00:31:33;;;;;;;12.27;4.20;;;;;;;;;;4984591;28;20490;-93
2022/07/04 00:33:59;;;;;;;5.72;3.88;;;;;;;;;;4989241;28;20025;-94
2022/07/04 00:36:26;;;;;;;7.97;4.07;;;;;;;;;;4990616;28;20026;-93
2022/07/04 00:38:52;;;;;;;11.65;4.13;;;;;;;;;;4981443;28;20039;-92
2022/07/04 00:41:18;;;;;;;17.83;4.20;;;;;;;;;;5005513;28;20060;-92
2022/07/04 00:44:04;;;;;;;15.48;4.75;;;;;;;;;;4987606;28;20358;-93
2022/07/04 00:46:32;;;;;;;8.70;3.45;;;;;;;;;;4979392;28;20413;-93
2022/07/04 00:49:15;;;;;;;9.60;3.88;;;;;;;;;;5005391;28;20049;-93
2022/07/04 00:51:42;;;;;;;8.05;4.50;;;;;;;;;;4992245;28;20084;-93
2022/07/04 00:54:09;;;;;;;7.97;3.90;;;;;;;;;;5003423;28;20065;-93
2022/07/04 00:56:40;;;;;;;10.60;3.97;;;;;;;;;;5001276;28;20151;-92
2022/07/04 00:59:06;;;;;;;9.77;4.00;;;;;;;;;;4987011;28;20109;-93
2022/07/04 01:01:33;;;;;;;7.45;3.88;;;;;;;;;;4987922;28;20100;-94
2022/07/04 01:03:59;;;;;;;6.65;4.10;;;;;;;;;;5000371;28;20036;-93
2022/07/04 01:06:25;;;;;;;7.95;4.10;;;;;;;;;;4988771;28;20505;-92
2022/07/04 01:08:56;;;;;;;6.03;3.45;;;;;;;;;;4985077;28;20054;-93
2022/07/04 01:11:22;;;;;;;8.48;4.03;;;;;;;;;;4989041;28;20513;-93
2022/07/04 01:13:51;;;;;;;9.75;3.92;;;;;;;;;;5006333;28;20033;-94
2022/07/04 01:16:17;;;;;;;9.50;4.00;;;;;;;;;;4988006;28;20029;-93
2022/07/04 01:18:43;;;;;;;6.50;3.50;;;;;;;;;;5001019;28;20508;-94
2022/07/04 01:21:09;;;;;;;11.82;4.03;;;;;;;;;;4988074;28;20083;-93
2022/07/04 01:23:42;;;;;;;9.30;4.43;;;;;;;;;;4989851;28;20165;-93
2022/07/04 01:26:08;;;;;;;7.15;3.92;;;;;;;;;;4990703;28;20161;-94
2022/07/04 01:28:37;;;;;;;7.18;4.00;;;;;;;;;;5000982;28;20480;-93
2022/07/04 01:31:03;;;;;;;15.55;4.32;;;;;;;;;;4988001;28;20033;-94
2022/07/04 01:33:32;;;;;;;7.43;4.55;;;;;;;;;;4991955;28;20030;-93
2022/07/04 01:35:59;;;;;;;9.40;4.32;;;;;;;;;;4989650;28;20038;-93
2022/07/04 01:38:25;;;;;;;6.28;4.25;;;;;;;;;;5005992;28;20088;-93
2022/07/04 01:40:54;;;;;;;7.93;4.13;;;;;;;;;;5007067;28;20085;-93
2022/07/04 01:43:23;;;;;;;8.60;4.53;;;;;;;;;;4986539;28;20038;-93
2022/07/04 01:45:52;;;;;;;6.20;4.10;;;;;;;;;;4986383;28;20177;-94
2022/07/04 01:48:20;;;;;;;8.43;4.78;;;;;;;;;;5006459;28;20034;-93
2022/07/04 01:50:48;;;;;;;11.45;4.97;;;;;;;;;;5003958;28;20049;-93
2022/07/04 01:53:17;;;;;;;12.63;5.28;;;;;;;;;;4995869;28;20041;-93
2022/07/04 01:55:43;;;;;;;8.20;4.65;;;;;;;;;;4989982;28;20034;-94
2022/07/04 01:58:12;;;;;;;15.60;4.82;;;;;;;;;;4987165;28;20034;-95
2022/07/04 02:03:23;;;;;;;11.77;4.57;;;;;;;;;;5005020;28;20120;-93
2022/07/04 02:05:49;;;;;;;11.82;4.75;;;;;;;;;;4988974;28;20125;-94
2022/07/04 02:08:15;;;;;;;15.07;5.55;;;;;;;;;;4987088;28;20036;-94
2022/07/04 02:10:41;;;;;;;9.95;4.78;;;;;;;;;;4992478;28;20441;-93
2022/07/04 02:13:10;;;;;;;9.80;4.78;;;;;;;;;;4992031;28;20022;-93
2022/07/04 02:15:37;;;;;;;8.82;5.20;;;;;;;;;;4992596;28;20037;-95
2022/07/04 02:18:04;;;;;;;9.25;5.07;;;;;;;;;;4994279;28;20029;-93
2022/07/04 02:20:33;;;;;;;10.10;5.32;;;;;;;;;;4994753;28;20036;-94
2022/07/04 02:22:59;;;;;;;13.95;5.18;;;;;;;;;;4992190;28;20029;-93
2022/07/04 02:25:26;;;;;;;18.45;5.45;;;;;;;;;;4984239;28;20470;-93
2022/07/04 02:27:52;;;;;;;14.82;5.95;;;;;;;;;;4991565;28;20026;-93
2022/07/04 02:30:18;;;;;;;13.75;5.80;;;;;;;;;;4986024;28;20892;-93
2022/07/04 02:32:44;;;;;;;11.43;5.88;;;;;;;;;;4987360;28;20039;-93
2022/07/04 02:35:13;;;;;;;14.13;5.55;;;;;;;;;;4990420;28;20611;-92
2022/07/04 02:37:42;;;;;;;9.50;5.90;;;;;;;;;;4992401;28;20022;-94
2022/07/04 02:40:08;;;;;;;11.50;5.45;;;;;;;;;;4989917;28;20023;-93
2022/07/04 02:42:37;;;;;;;11.23;5.80;;;;;;;;;;4998256;28;20133;-94
2022/07/04 02:45:04;;;;;;;14.52;5.55;;;;;;;;;;4993954;28;20068;-94
2022/07/04 02:47:30;;;;;;;16.65;5.95;;;;;;;;;;4987932;28;20041;-94
2022/07/04 02:50:13;;;;;;;15.98;6.15;;;;;;;;;;4991386;28;20041;-94
2022/07/04 02:52:41;;;;;;;16.05;5.97;;;;;;;;;;4975311;28;20453;-93
2022/07/04 02:55:10;;;;;;;11.23;6.35;;;;;;;;;;4972174;28;20069;-93
2022/07/04 02:57:37;;;;;;;12.10;5.25;;;;;;;;;;5003287;28;20030;-93
2022/07/04 03:00:03;;;;;;;13.15;5.50;;;;;;;;;;4978059;28;20115;-92
2022/07/04 03:02:29;;;;;;;14.35;6.13;;;;;;;;;;4970122;28;20613;-94
2022/07/04 03:05:05;;;;;;;12.93;6.00;;;;;;;;;;4972405;28;20478;-94
2022/07/04 03:07:31;;;;;;;13.05;6.53;;;;;;;;;;4989045;28;20053;-94
2022/07/04 03:10:03;;;;;;;11.90;6.93;;;;;;;;;;4971787;28;20045;-93
2022/07/04 03:12:34;;;;;;;16.63;8.13;;;;;;;;;;4974426;28;20126;-94
2022/07/04 03:15:00;;;;;;;20.27;7.10;;;;;;;;;;4974568;28;20031;-94
2022/07/04 03:17:36;;;;;;;18.58;7.78;;;;;;;;;;4999482;28;20026;-93
2022/07/04 03:20:02;;;;;;;14.75;8.25;;;;;;;;;;4988662;28;20039;-93
2022/07/04 03:22:32;;;;;;;22.75;8.23;;;;;;;;;;4967765;28;20035;-93
2022/07/04 03:24:58;;;;;;;12.00;8.23;;;;;;;;;;4972757;28;20478;-93
2022/07/04 03:27:24;;;;;;;14.45;7.28;;;;;;;;;;4967344;28;20442;-94
2022/07/04 03:29:52;;;;;;;22.50;8.43;;;;;;;;;;4989945;28;20424;-94
2022/07/04 03:32:21;;;;;;;11.88;7.25;;;;;;;;;;4971862;28;20125;-94
2022/07/04 03:35:00;;;;;;;10.68;7.75;;;;;;;;;;4972980;28;20030;-94
2022/07/04 03:37:28;;;;;;;10.80;6.80;;;;;;;;;;4984899;28;20026;-94
2022/07/04 03:39:57;;;;;;;15.00;7.00;;;;;;;;;;4972027;28;20057;-93
2022/07/04 03:42:23;;;;;;;15.35;7.50;;;;;;;;;;4988848;28;20118;-94
2022/07/04 03:44:49;;;;;;;13.10;7.38;;;;;;;;;;4969121;28;20490;-93
2022/07/04 03:47:15;;;;;;;15.57;6.78;;;;;;;;;;4966832;28;20041;-94
2022/07/04 03:49:41;;;;;;;12.50;6.68;;;;;;;;;;4969407;28;20034;-94
2022/07/04 03:52:13;;;;;;;15.07;6.90;;;;;;;;;;5001567;28;20058;-95
2022/07/04 03:54:42;;;;;;;13.70;6.10;;;;;;;;;;4983659;28;20068;-94
2022/07/04 03:57:11;;;;;;;11.75;5.40;;;;;;;;;;4987270;28;20506;-93
2022/07/04 03:59:37;;;;;;;16.80;6.78;;;;;;;;;;5003149;28;20030;-93
2022/07/04 04:02:03;;;;;;;10.82;6.32;;;;;;;;;;5000064;28;20034;-94
2022/07/04 04:07:14;;;;;;;19.90;6.97;;;;;;;;;;5004150;28;20095;-93
2022/07/04 04:09:40;;;;;;;16.20;6.95;;;;;;;;;;4989616;28;20133;-93
2022/07/04 04:12:06;;;;;;;14.38;6.22;;;;;;;;;;5002295;28;20429;-93
2022/07/04 04:14:32;;;;;;;12.77;6.38;;;;;;;;;;4990814;28;20026;-93
2022/07/04 04:17:04;;;;;;;17.27;8.02;;;;;;;;;;5004614;28;20438;-94
2022/07/04 04:19:35;;;;;;;19.23;6.72;;;;;;;;;;5002118;28;20030;-93
2022/07/04 04:22:09;;;;;;;12.35;7.10;;;;;;;;;;4991901;28;20040;-93
2022/07/04 04:24:35;;;;;;;16.48;6.35;;;;;;;;;;5002048;28;20492;-94
2022/07/04 04:27:01;;;;;;;11.70;6.22;;;;;;;;;;5002709;28;20038;-93
2022/07/04 04:29:27;;;;;;;9.68;6.10;;;;;;;;;;4990011;28;20033;-94
2022/07/04 04:31:56;;;;;;;17.30;6.10;;;;;;;;;;4983558;28;20036;-93
2022/07/04 04:34:22;;;;;;;13.15;6.20;;;;;;;;;;4988990;28;20018;-93
2022/07/04 04:36:56;;;;;;;11.02;6.07;;;;;;;;;;4992442;28;20022;-93
2022/07/04 04:39:25;;;;;;;14.95;5.93;;;;;;;;;;5002354;28;20030;-94
2022/07/04 04:41:51;;;;;;;11.18;5.93;;;;;;;;;;4989710;28;20062;-93
2022/07/04 04:44:19;;;;;;;16.52;5.30;;;;;;;;;;5001514;28;20064;-94
2022/07/04 04:46:45;;;;;;;10.35;5.63;;;;;;;;;;4992349;28;20128;-94
2022/07/04 04:49:11;;;;;;;11.40;5.03;;;;;;;;;;5000891;28;20041;-94
2022/07/04 04:51:40;;;;;;;11.35;4.93;;;;;;;;;;4970647;28;20046;-93
2022/07/04 04:54:08;;;;;;;8.85;5.40;;;;;;;;;;4969072;28;20024;-94
2022/07/04 04:56:34;;;;;;;10.52;4.32;;;;;;;;;;4968519;28;20478;-93
2022/07/04 04:59:00;;;;;;;14.48;5.13;;;;;;;;;;4968337;28;20508;-94
2022/07/04 05:01:27;;;;;;;12.57;4.28;;;;;;;;;;4966324;28;20038;-93
2022/07/04 05:03:53;;;;;;;6.47;3.72;;;;;;;;;;4970666;28;20484;-92
2022/07/04 05:06:21;;;;;;;14.40;3.97;;;;;;;;;;4969204;28;20030;-93
2022/07/04 05:08:53;;;;;;;8.02;4.00;;;;;;;;;;4975677;28;20033;-93
2022/07/04 05:11:26;;;;;;;11.30;4.28;;;;;;;;;;4987035;28;20349;-93
2022/07/04 05:13:55;;;;;;;9.05;4.22;;;;;;;;;;4971043;28;20046;-93
2022/07/04 05:16:27;;;;;;;13.10;3.88;;;;;;;;;;4974749;28;20023;-92
2022/07/04 05:19:05;;;;;;;11.40;3.92;;;;;;;;;;4985713;28;20034;-93
2022/07/04 05:21:34;;;;;;;6.80;3.55;;;;;;;;;;4972094;28;20458;-93
2022/07/04 05:24:24;;;;;;;10.88;3.75;;;;;;;;;;4971006;28;20206;-93
2022/07/04 05:27:22;;;;;;;5.15;3.30;;;;;;;;;;4978683;28;20131;-92
2022/07/04 05:29:52;;;;;;;9.90;3.78;;;;;;;;;;4966992;28;20175;-94
2022/07/04 05:32:36;;;;;;;10.55;3.47;;;;;;;;;;4970283;28;20285;-93
2022/07/04 05:35:23;;;;;;;6.85;3.20;;;;;;;;;;4978894;28;20023;-93
2022/07/04 05:37:52;;;;;;;5.35;3.30;;;;;;;;;;4974960;28;20034;-94
2022/07/04 05:40:21;;;;;;;6.38;2.95;;;;;;;;;;4990625;28;20029;-93
2022/07/04 05:42:48;;;;;;;7.72;3.42;;;;;;;;;;4959831;28;20051;-93
2022/07/04 05:45:15;;;;;;;7.45;3.83;;;;;;;;;;4987260;28;20030;-94
2022/07/04 05:47:43;;;;;;;7.70;3.15;;;;;;;;;;4972489;28;20426;-93
2022/07/04 05:50:10;;;;;;;5.45;3.05;;;;;;;;;;4976066;28;20037;-92
2022/07/04 05:52:47;;;;;;;8.20;3.35;;;;;;;;;;4994986;28;20065;-94
2022/07/04 05:55:25;;;;;;;12.60;3.47;;;;;;;;;;4990887;28;20022;-93
2022/07/04 05:57:51;;;;;;;10.73;3.53;;;;;;;;;;4995455;28;20034;-92
2022/07/04 06:00:17;;;;;;;10.15;3.67;;;;;;;;;;4996453;28;20060;-93
2022/07/04 06:03:05;;;;;;;4.70;3.17;;;;;;;;;;4994246;28;20093;-93
2022/07/04 06:05:31;;;;;;;6.90;3.60;;;;;;;;;;4998223;28;20504;-92
2022/07/04 06:07:57;;;;;;;9.63;3.90;;;;;;;;;;5002133;28;20525;-93
2022/07/04 06:10:34;;;;;;;9.20;3.78;;;;;;;;;;4990055;28;20030;-93
2022/07/04 06:13:05;;;;;;;7.85;3.20;;;;;;;;;;4993387;28;20065;-93
2022/07/04 06:15:34;;;;;;;10.35;3.45;;;;;;;;;;4999245;28;20469;-93
2022/07/04 06:18:02;;;;;;;9.85;3.70;;;;;;;;;;4988590;28;20120;-94
2022/07/04 06:20:39;;;;;;;7.65;3.90;;;;;;;;;;4986580;28;20529;-92
2022/07/04 06:23:08;;;;;;;8.25;4.13;;;;;;;;;;4988720;28;20034;-94
2022/07/04 06:25:38;;;;;;;6.40;3.53;;;;;;;;;;4985772;28;20034;-92
2022/07/04 06:28:06;;;;;;;10.00;3.53;;;;;;;;;;5004786;28;20024;-92
2022/07/04 06:30:34;;;;;;;8.95;3.42;;;;;;;;;;5003600;28;20149;-93
2022/07/04 06:33:00;;;;;;;7.55;3.55;;;;;;;;;;5003075;28;20033;-93
2022/07/04 06:38:30;;;;;;;8.45;2.90;;;;;;;;;;4965602;28;20098;-92
2022/07/04 06:40:59;;;;;;;7.65;2.67;;;;;;;;;;4949394;28;20034;-92
2022/07/04 06:43:29;;;;;;;11.65;4.15;;;;;;;;;;4964587;28;20061;-93
2022/07/04 06:45:57;;;;;;;9.75;2.80;;;;;;;;;;4976396;28;20041;-92
2022/07/04 06:48:23;;;;;;;7.25;2.92;;;;;;;;;;5006416;28;20030;-93
2022/07/04 06:51:02;;;;;;;6.65;3.05;;;;;;;;;;4991541;28;20117;-93
2022/07/04 06:53:28;;;;;;;15.32;2.88;;;;;;;;;;4987106;28;20321;-93
2022/07/04 06:55:54;;;;;;;11.68;2.80;;;;;;;;;;5005509;28;20036;-92
2022/07/04 06:58:23;;;;;;;5.63;2.60;;;;;;;;;;4979963;28;20448;-93
2022/07/04 07:00:51;;;;;;;6.00;2.65;;;;;;;;;;5000728;28;20046;-92
2022/07/04 07:03:20;;;;;;;11.75;2.88;;;;;;;;;;4989129;28;20046;-93
2022/07/04 07:05:46;;;;;;;8.65;2.50;;;;;;;;;;4992526;28;20034;-93
2022/07/04 07:08:17;;;;;;;8.38;2.95;;;;;;;;;;4989988;28;20536;-92
2022/07/04 07:10:46;;;;;;;6.57;2.53;;;;;;;;;;4989230;28;20040;-92
2022/07/04 07:13:12;;;;;;;8.60;2.40;;;;;;;;;;5004878;28;20034;-93
2022/07/04 07:15:38;;;;;;;8.38;2.38;;;;;;;;;;4989702;28;20098;-92
2022/07/04 07:18:04;;;;;;;9.93;2.70;;;;;;;;;;5006765;28;20049;-92
2022/07/04 07:20:31;;;;;;;5.78;2.88;;;;;;;;;;5006232;28;20561;-92
2022/07/04 07:22:57;;;;;;;12.95;2.58;;;;;;;;;;5004289;28;20030;-93
2022/07/04 07:25:23;;;;;;;9.13;2.38;;;;;;;;;;4989706;28;20038;-92
2022/07/04 07:27:49;;;;;;;5.55;2.20;;;;;;;;;;4999677;28;20036;-92
2022/07/04 07:30:18;;;;;;;5.70;2.17;;;;;;;;;;5013110;28;20027;-93
2022/07/04 07:32:46;;;;;;;11.48;2.63;;;;;;;;;;4993746;28;20037;-92
2022/07/04 07:35:15;;;;;;;8.68;2.88;;;;;;;;;;4990455;28;20034;-92
2022/07/04 07:37:42;;;;;;;6.75;2.63;;;;;;;;;;4990000;28;20026;-92
2022/07/04 07:40:09;;;;;;;7.55;3.03;;;;;;;;;;4991721;28;20037;-92
2022/07/04 07:42:35;;;;;;;9.35;3.67;;;;;;;;;;5009924;28;20052;-92
2022/07/04 07:45:01;;;;;;;4.95;2.50;;;;;;;;;;4986961;28;20037;-93
2022/07/04 07:47:28;;;;;;;11.95;3.08;;;;;;;;;;5000537;28;20038;-92
2022/07/04 07:49:54;;;;;;;7.32;2.53;;;;;;;;;;4985661;28;20034;-92
2022/07/04 07:52:20;;;;;;;7.05;2.70;;;;;;;;;;4991340;28;20101;-93
2022/07/04 07:54:59;;;;;;;112.38;29.20;;;;;;;;;;4975072;28;20022;-91
2022/07/04 07:57:25;;;;;;;17.95;6.03;;;;;;;;;;4975862;28;20100;-92
2022/07/04 07:59:54;;;;;;;10.57;3.15;;;;;;;;;;4974616;28;20076;-91
2022/07/04 08:04:33;;;;;;;5.65;2.55;;;;;;;;;;4966905;28;20110;-92
2022/07/04 08:05:06;;;;;;;10.60;2.95;;;;;;;;;;4989359;28;20046;-92
2022/07/04 08:07:35;;;;;;;9.13;2.65;;;;;;;;;;4970199;28;20477;-91
2022/07/04 08:10:01;;;;;;;7.78;2.15;;;;;;;;;;4962714;28;20078;-92
2022/07/04 08:12:27;;;;;;;16.45;3.08;;;;;;;;;;4977134;28;20137;-92
2022/07/04 08:14:58;;;;;;;10.00;3.63;;;;;;;;;;4966233;28;20026;-92
2022/07/04 08:17:24;;;;;;;8.07;3.00;;;;;;;;;;4962084;28;20031;-93
2022/07/04 08:19:52;;;;;;;14.05;2.85;;;;;;;;;;4963605;28;20074;-92
2022/07/04 08:22:18;;;;;;;8.32;2.72;;;;;;;;;;4967633;28;20027;-92
2022/07/04 08:24:44;;;;;;;7.60;2.47;;;;;;;;;;4970211;28;20095;-93
2022/07/04 08:27:28;;;;;;;6.82;2.88;;;;;;;;;;4981141;28;20501;-95
2022/07/04 08:29:54;;;;;;;5.07;2.85;;;;;;;;;;4983672;28;20045;-91
2022/07/04 08:32:21;;;;;;;9.80;2.83;;;;;;;;;;4972236;28;20355;-92
2022/07/04 08:34:52;;;;;;;7.82;2.75;;;;;;;;;;4966412;28;20585;-93
2022/07/04 08:37:18;;;;;;;7.55;2.88;;;;;;;;;;4973118;28;20390;-92
2022/07/04 08:39:44;;;;;;;6.28;2.63;;;;;;;;;;4972869;28;20039;-94
2022/07/04 08:42:13;;;;;;;6.03;2.83;;;;;;;;;;4973252;28;20127;-94
2022/07/04 08:44:41;;;;;;;5.35;2.28;;;;;;;;;;4970356;28;20044;-93
2022/07/04 08:47:10;;;;;;;4.13;2.03;;;;;;;;;;4982974;28;20030;-93
2022/07/04 08:49:37;;;;;;;5.47;2.03;;;;;;;;;;4973095;28;20500;-92
2022/07/04 08:52:08;;;;;;;5.88;1.80;;;;;;;;;;4995715;28;20445;-93
2022/07/04 09:00:05;;;;;;;2.17;1.55;;;;;;;;;;5009006;28;20088;-92
2022/07/04 09:02:33;;;;;;;4.38;2.00;;;;;;;;;;5003735;28;20034;-92
2022/07/04 09:05:02;;;;;;;4.45;1.52;;;;;;;;;;4992037;28;20472;-92
2022/07/04 09:07:29;;;;;;;3.70;1.42;;;;;;;;;;4987016;28;20034;-92
2022/07/04 09:09:57;;;;;;;2.58;1.70;;;;;;;;;;5005970;28;20421;-92
2022/07/04 09:12:23;;;;;;;1.85;1.23;;;;;;;;;;4987778;28;20624;-92
2022/07/04 09:14:52;;;;;;;4.80;1.60;;;;;;;;;;4996263;28;20026;-91
2022/07/04 09:17:36;;;;;;;4.13;1.75;;;;;;;;;;4989977;28;20033;-93
2022/07/04 09:20:14;;;;;;;2.95;1.35;;;;;;;;;;5003724;28;20088;-92
2022/07/04 09:22:40;;;;;;;2.72;1.30;;;;;;;;;;5005277;28;20041;-94
2022/07/04 09:25:07;;;;;;;3.50;1.20;;;;;;;;;;4993987;28;20037;-93
2022/07/04 09:27:34;;;;;;;2.97;1.10;;;;;;;;;;4993772;28;20034;-92
2022/07/04 09:30:10;;;;;;;1.50;1.10;;;;;;;;;;4990677;28;20029;-94
2022/07/04 09:33:04;;;;;;;;;;;;;;;;;;;;;
2022/07/04 09:35:34;;;;;;;7.60;1.20;;;;;;;;;;5002126;28;20040;-95
2022/07/04 09:38:06;;;;;;;1.60;0.82;;;;;;;;;;4989169;28;20029;-95
2022/07/04 09:44:00;;;;;;;2.47;1.20;;;;;;;;;;5008882;28;20145;-95
2022/07/04 09:46:31;;;;;;;4.43;1.50;;;;;;;;;;4999715;28;20029;-95
2022/07/04 09:49:04;;;;;;;2.78;1.30;;;;;;;;;;4991172;28;20109;-95
2022/07/04 09:51:41;;;;;;;3.67;1.30;;;;;;;;;;5009243;28;20050;-95
2022/07/04 09:54:38;;;;;;;4.05;1.23;;;;;;;;;;5012470;28;20022;-94
2022/07/04 09:57:12;;;;;;;8.02;1.20;;;;;;;;;;4994820;28;20048;-95
2022/07/04 09:59:38;;;;;;;5.20;1.15;;;;;;;;;;4997709;28;20038;-95
2022/07/04 10:02:08;;;;;;;1.58;1.20;;;;;;;;;;5000051;28;20034;-94
2022/07/04 10:04:44;;;;;;;2.75;1.23;;;;;;;;;;4994923;28;20046;-94
2022/07/04 10:07:35;;;;;;;2.38;1.17;;;;;;;;;;5012116;28;20378;-93
2022/07/04 10:10:22;;;;;;;3.40;1.40;;;;;;;;;;5008648;28;20041;-94
2022/07/04 10:13:08;;;;;;;4.97;1.50;;;;;;;;;;4995002;28;20034;-94
2022/07/04 10:15:37;;;;;;;2.63;1.58;;;;;;;;;;5006586;28;20014;-95
2022/07/04 10:18:07;;;;;;;2.95;1.40;;;;;;;;;;4995991;28;20422;-94
2022/07/04 10:20:33;;;;;;;4.63;1.60;;;;;;;;;;5009007;28;20045;-95
2022/07/04 10:23:05;;;;;;;3.45;1.55;;;;;;;;;;5007781;28;20044;-94
2022/07/04 10:25:48;;;;;;;1.48;1.17;;;;;;;;;;5005893;28;20034;-95
2022/07/04 10:28:18;;;;;;;3.53;1.45;;;;;;;;;;4993236;28;20068;-94
2022/07/04 10:30:46;;;;;;;3.10;1.83;;;;;;;;;;4994957;28;20401;-94
2022/07/04 10:33:30;;;;;;;5.93;1.27;;;;;;;;;;4993352;28;20049;-95
2022/07/04 10:36:01;;;;;;;3.20;1.38;;;;;;;;;;4995293;28;20053;-93
2022/07/04 10:38:28;;;;;;;1.58;1.20;;;;;;;;;;4994706;28;20034;-94
2022/07/04 10:40:59;;;;;;;1.80;1.42;;;;;;;;;;4993919;28;20040;-94
2022/07/04 10:43:29;;;;;;;2.25;1.50;;;;;;;;;;4985797;28;20478;-91
2022/07/04 10:45:56;;;;;;;3.00;1.90;;;;;;;;;;5002156;28;20761;-90
2022/07/04 10:48:25;;;;;;;2.58;1.40;;;;;;;;;;5001401;28;20436;-87
2022/07/04 10:51:04;;;;;;;1.77;1.30;;;;;;;;;;5008205;28;20029;-87
2022/07/04 10:53:30;;;;;;;1.13;1.00;;;;;;;;;;4992071;28;20030;-88
2022/07/04 10:56:04;;;;;;;1.77;1.20;;;;;;;;;;4993036;28;20489;-89
2022/07/04 10:58:40;;;;;;;1.85;1.60;;;;;;;;;;4987277;28;20516;-90
2022/07/04 11:01:12;;;;;;;3.58;1.30;;;;;;;;;;4990212;28;20517;-89
2022/07/04 11:03:45;;;;;;;6.25;1.13;;;;;;;;;;5004664;28;20026;-89
2022/07/04 11:06:30;;;;;;;4.28;1.30;;;;;;;;;;5008450;28;20021;-90
2022/07/04 11:09:14;;;;;;;1.23;1.13;;;;;;;;;;5015090;28;20095;-96
2022/07/04 11:11:51;;;;;;;1.50;1.10;;;;;;;;;;4990554;28;20022;-91
2022/07/04 11:14:36;;;;;;;1.65;1.20;;;;;;;;;;5003171;23;20086;-87
2022/07/04 11:17:06;;;;;;;2.50;0.75;;;;;;;;;;4999174;28;20107;-87
2022/07/04 11:19:32;;;;;;;3.40;1.30;;;;;;;;;;4979516;28;20490;-87
2022/07/04 11:21:58;;;;;;;5.38;1.23;;;;;;;;;;4980064;28;20046;-87
2022/07/04 11:24:25;;;;;;;6.10;1.10;;;;;;;;;;4982584;28;20041;-87
2022/07/04 11:26:51;;;;;;;3.33;1.35;;;;;;;;;;4980902;28;20041;-87
2022/07/04 11:29:17;;;;;;;1.55;1.15;;;;;;;;;;4980246;28;20041;-86
2022/07/04 11:31:45;;;;;;;7.30;1.20;;;;;;;;;;4980273;28;20040;-87
2022/07/04 11:34:11;;;;;;;7.97;1.30;;;;;;;;;;4991649;28;20038;-87
2022/07/04 11:36:42;;;;;;;3.13;1.02;;;;;;;;;;4978052;28;20049;-87
2022/07/04 11:39:09;;;;;;;3.75;2.20;;;;;;;;;;4985045;28;20077;-87
2022/07/04 11:47:18;;;;;;;2.30;1.20;;;;;;;;;;4985623;28;20045;-87
2022/07/04 11:49:45;;;;;;;5.70;1.60;;;;;;;;;;4983302;28;20054;-87
2022/07/04 11:52:11;;;;;;;3.10;1.20;;;;;;;;;;4983346;28;20045;-87
2022/07/04 11:54:39;;;;;;;3.60;1.45;;;;;;;;;;4975536;28;20049;-87
2022/07/04 11:57:11;;;;;;;2.85;1.10;;;;;;;;;;4980688;28;20373;-87
2022/07/04 11:59:37;;;;;;;7.97;1.20;;;;;;;;;;4978343;28;20034;-88
2022/07/04 12:02:13;;;;;;;3.10;1.40;;;;;;;;;;4979871;28;20062;-87
2022/07/04 12:04:41;;;;;;;5.40;1.23;;;;;;;;;;4985380;28;20046;-88
2022/07/04 12:07:11;;;;;;;3.72;1.42;;;;;;;;;;4977550;28;20034;-87
2022/07/04 12:09:38;;;;;;;2.25;1.13;;;;;;;;;;4982890;28;20437;-87
2022/07/04 12:12:04;;;;;;;4.85;1.10;;;;;;;;;;4984007;28;20462;-87
2022/07/04 12:14:30;;;;;;;3.65;1.15;;;;;;;;;;4977169;28;20484;-86
2022/07/04 12:17:10;;;;;;;7.97;1.10;;;;;;;;;;4981106;28;20038;-86
2022/07/04 12:19:36;;;;;;;5.43;1.00;;;;;;;;;;4997680;28;20077;-86
2022/07/04 12:22:02;;;;;;;3.97;1.13;;;;;;;;;;4983662;28;20144;-85
2022/07/04 12:24:28;;;;;;;5.82;1.42;;;;;;;;;;4983130;28;20618;-86
2022/07/04 12:27:01;;;;;;;3.47;1.10;;;;;;;;;;4981137;28;20049;-86
2022/07/04 12:29:27;;;;;;;6.57;1.25;;;;;;;;;;4980645;28;20034;-86
2022/07/04 12:32:00;;;;;;;2.47;1.25;;;;;;;;;;4977863;28;20461;-86
2022/07/04 12:34:36;;;;;;;2.22;1.27;;;;;;;;;;4968482;28;20050;-86
2022/07/04 12:37:07;;;;;;;1.90;1.13;;;;;;;;;;4978224;28;20652;-86
2022/07/04 12:39:34;;;;;;;2.75;1.25;;;;;;;;;;4971274;28;20037;-87
2022/07/04 12:42:27;;;;;;;3.85;1.00;;;;;;;;;;4967967;28;20038;-86
2022/07/04 12:44:53;;;;;;;2.60;1.10;;;;;;;;;;4959612;28;20129;-86
2022/07/04 12:47:19;;;;;;;1.60;1.20;;;;;;;;;;4967582;28;20146;-86
2022/07/04 12:49:46;;;;;;;3.08;1.50;;;;;;;;;;4982179;28;20125;-85
2022/07/04 12:52:14;;;;;;;2.55;1.30;;;;;;;;;;4968421;28;20034;-86
2022/07/04 12:54:40;;;;;;;3.08;1.20;;;;;;;;;;4966769;28;20046;-87
2022/07/04 12:57:11;;;;;;;2.20;1.17;;;;;;;;;;4987667;28;20077;-86
2022/07/04 12:59:37;;;;;;;5.10;1.15;;;;;;;;;;4969416;28;20027;-86
2022/07/04 13:02:04;;;;;;;2.80;1.52;;;;;;;;;;4971525;28;20031;-86
2022/07/04 13:04:31;;;;;;;8.27;1.80;;;;;;;;;;4965092;28;20129;-86
2022/07/04 13:06:59;;;;;;;3.85;1.23;;;;;;;;;;4965057;28;20478;-86
2022/07/04 13:09:25;;;;;;;4.15;1.33;;;;;;;;;;4965050;28;20058;-86
2022/07/04 13:14:48;;;;;;;1.33;1.20;;;;;;;;;;4962776;28;20066;-86
2022/07/04 13:17:14;;;;;;;2.92;1.40;;;;;;;;;;4963791;28;20018;-86
2022/07/04 13:19:40;;;;;;;4.63;1.48;;;;;;;;;;4955660;28;20038;-86
2022/07/04 13:22:07;;;;;;;6.70;1.20;;;;;;;;;;4943270;28;20065;-86
2022/07/04 13:24:33;;;;;;;3.17;1.73;;;;;;;;;;4939554;28;20501;-86
2022/07/04 13:26:59;;;;;;;2.75;1.65;;;;;;;;;;4953282;28;20035;-86
2022/07/04 13:29:25;;;;;;;3.15;1.00;;;;;;;;;;4965232;28;20032;-86
2022/07/04 13:31:51;;;;;;;1.60;1.00;;;;;;;;;;4950028;28;20038;-86
2022/07/04 13:34:17;;;;;;;1.20;0.80;;;;;;;;;;4955428;28;20019;-86
2022/07/04 13:36:44;;;;;;;3.05;1.00;;;;;;;;;;4958722;28;20055;-86
2022/07/04 13:39:11;;;;;;;4.20;1.23;;;;;;;;;;4959594;28;20577;-86
2022/07/04 13:41:37;;;;;;;4.03;1.20;;;;;;;;;;4945615;28;20105;-86
2022/07/04 13:44:04;;;;;;;4.20;1.00;;;;;;;;;;4962219;28;20073;-86
2022/07/04 13:46:31;;;;;;;2.70;1.10;;;;;;;;;;4950314;28;20035;-85
2022/07/04 13:48:57;;;;;;;2.00;0.88;;;;;;;;;;4945950;28;20038;-86
2022/07/04 13:51:23;;;;;;;2.72;1.00;;;;;;;;;;4941275;28;20074;-86
2022/07/04 13:53:49;;;;;;;3.13;1.60;;;;;;;;;;4944687;28;21276;-86
2022/07/04 13:56:16;;;;;;;1.52;0.88;;;;;;;;;;4943316;28;20031;-86
2022/07/04 13:58:44;;;;;;;1.60;0.77;;;;;;;;;;4947338;28;20062;-86
2022/07/04 14:01:10;;;;;;;3.35;1.00;;;;;;;;;;4963004;28;20034;-86
2022/07/04 14:03:36;;;;;;;5.93;1.27;;;;;;;;;;4945793;28;20082;-86
2022/07/04 14:06:02;;;;;;;1.70;0.90;;;;;;;;;;4948069;28;20033;-86
2022/07/04 14:08:28;;;;;;;1.60;0.65;;;;;;;;;;4955135;28;20031;-86
2022/07/04 14:10:54;;;;;;;3.03;0.85;;;;;;;;;;4947543;28;20035;-86
2022/07/04 14:13:20;;;;;;;5.85;0.95;;;;;;;;;;4946982;28;20038;-86
2022/07/04 14:15:46;;;;;;;4.13;0.90;;;;;;;;;;4974457;28;20057;-86
2022/07/04 14:18:13;;;;;;;4.18;0.82;;;;;;;;;;4968273;28;20046;-87
2022/07/04 14:20:40;;;;;;;2.53;0.95;;;;;;;;;;4974034;28;20026;-87
2022/07/04 14:23:06;;;;;;;5.57;0.90;;;;;;;;;;4971829;28;20133;-87
2022/07/04 14:25:33;;;;;;;2.25;0.75;;;;;;;;;;4970411;28;20036;-87
2022/07/04 14:27:59;;;;;;;1.45;0.80;;;;;;;;;;4979930;28;20125;-86
2022/07/04 14:30:25;;;;;;;2.03;0.90;;;;;;;;;;4970111;28;20121;-86
2022/07/04 14:32:51;;;;;;;4.75;0.88;;;;;;;;;;4967521;28;20096;-86
2022/07/04 14:35:17;;;;;;;1.50;0.90;;;;;;;;;;4968118;28;20034;-86
2022/07/04 14:37:43;;;;;;;3.53;0.90;;;;;;;;;;4983946;28;20475;-87
2022/07/04 14:40:10;;;;;;;2.83;0.60;;;;;;;;;;4972465;28;20027;-87
2022/07/04 14:42:36;;;;;;;1.08;0.68;;;;;;;;;;4975426;28;20026;-87
2022/07/04 14:45:02;;;;;;;1.10;0.52;;;;;;;;;;4967002;28;20521;-87
2022/07/04 14:47:28;;;;;;;9.63;1.50;;;;;;;;;;4970773;28;20138;-87
2022/07/04 14:49:54;;;;;;;2.90;0.60;;;;;;;;;;4968656;28;20038;-87
2022/07/04 14:52:20;;;;;;;1.88;1.23;;;;;;;;;;4963942;28;20042;-87
2022/07/04 14:54:46;;;;;;;2.38;1.05;;;;;;;;;;4981717;28;20102;-87
2022/07/04 14:57:13;;;;;;;1.70;0.77;;;;;;;;;;4969042;28;20056;-87
2022/07/04 14:59:39;;;;;;;1.20;0.85;;;;;;;;;;4967013;28;20022;-87
2022/07/04 15:02:05;;;;;;;2.17;0.95;;;;;;;;;;4967108;28;20062;-87
2022/07/04 15:04:31;;;;;;;2.38;0.50;;;;;;;;;;4971980;28;20035;-87
2022/07/04 15:06:58;;;;;;;9.45;1.58;;;;;;;;;;4971571;28;20033;-87
2022/07/04 15:09:24;;;;;;;1.15;0.70;;;;;;;;;;4968150;28;20054;-87
2022/07/04 15:11:51;;;;;;;3.33;0.60;;;;;;;;;;4982619;28;20430;-87
2022/07/04 15:14:17;;;;;;;1.45;0.80;;;;;;;;;;4969291;28;20066;-87
2022/07/04 15:16:43;;;;;;;2.55;0.75;;;;;;;;;;4970688;28;20261;-87
2022/07/04 15:19:10;;;;;;;11.57;1.10;;;;;;;;;;4980806;28;20023;-87